createdAt,value
2022-09-12T00:02:03.362Z,97068.78
2022-09-12T00:04:30.432Z,97067.28
2022-09-12T00:06:57.960Z,97069.63
2022-09-12T00:09:24.825Z,97075.22
2022-09-12T00:11:51.738Z,97072.47
2022-09-12T00:15:03.893Z,97066.56
2022-09-12T00:17:37.203Z,97064.75
2022-09-12T00:20:09.410Z,97058.56
2022-09-12T00:22:36.707Z,97058.44
2022-09-12T00:25:06.461Z,97060.41
2022-09-12T00:27:34.731Z,97059.44
2022-09-12T00:34:01.010Z,97058.34
2022-09-12T00:36:29.382Z,97051.03
2022-09-12T00:38:56.485Z,97050.84
2022-09-12T00:41:37.457Z,97053.19
2022-09-12T00:44:24.314Z,97049.56
2022-09-12T00:47:07.760Z,97055.72
2022-09-12T00:50:00.280Z,97054.59
2022-09-12T00:52:33.580Z,97062.44
2022-09-12T00:55:17.969Z,97054.25
2022-09-12T00:58:21.766Z,97040.88
2022-09-12T01:00:48.726Z,97052.38
2022-09-12T01:03:19.519Z,97044.69
2022-09-12T01:06:15.741Z,97045.66
2022-09-12T01:08:43.894Z,97048.84
2022-09-12T01:11:13.316Z,97049.75
2022-09-12T01:13:40.393Z,97056.59
2022-09-12T01:16:08.394Z,97055.72
2022-09-12T01:18:35.306Z,97057.22
2022-09-12T01:21:26.165Z,97055.44
2022-09-12T01:24:26.426Z,97050.41
2022-09-12T01:27:29.351Z,97049.47
2022-09-12T01:30:05.145Z,97043.59
2022-09-12T01:32:37.660Z,97047.03
2022-09-12T01:35:07.926Z,97044.06
2022-09-12T01:37:45.920Z,97047.47
2022-09-12T01:40:24.044Z,97042.44
2022-09-12T01:43:10.010Z,97044.44
2022-09-12T01:45:44.149Z,97039.34
2022-09-12T01:48:24.516Z,97036.94
2022-09-12T01:50:58.041Z,97032.88
2022-09-12T01:53:29.938Z,97033.88
2022-09-12T01:56:09.517Z,97026.59
2022-09-12T01:58:51.242Z,97023.75
2022-09-12T02:01:26.854Z,97032.88
2022-09-12T02:04:21.006Z,97046.41
2022-09-12T02:07:22.011Z,97032.91
2022-09-12T02:10:02.256Z,97038.19
2022-09-12T02:12:38.235Z,97043.38
2022-09-12T02:15:08.878Z,97037.38
2022-09-12T02:17:45.877Z,97044.13
2022-09-12T02:20:48.228Z,97035.31
2022-09-12T02:23:23.035Z,97038.94
2022-09-12T02:25:54.850Z,97035.56
2022-09-12T02:28:34.799Z,97040.16
2022-09-12T02:31:08.528Z,97039.03
2022-09-12T02:33:49.017Z,97038.06
2022-09-12T02:36:25.862Z,97036.28
2022-09-12T02:38:53.657Z,97037.22
2022-09-12T02:41:21.326Z,97033.63
2022-09-12T02:43:50.458Z,97032.06
2022-09-12T02:46:33.558Z,97020.38
2022-09-12T02:49:00.435Z,97031.22
2022-09-12T02:51:27.550Z,97035.53
2022-09-12T02:53:54.416Z,97032.03
2022-09-12T02:56:27.677Z,97028.22
2022-09-12T02:59:06.036Z,97034.28
2022-09-12T03:01:35.926Z,97041.34
2022-09-12T03:04:33.548Z,97030.53
2022-09-12T03:07:19.113Z,97030.84
2022-09-12T03:09:49.359Z,97032.34
2022-09-12T03:12:28.185Z,97019.19
2022-09-12T03:15:10.982Z,97026.00
2022-09-12T03:18:05.509Z,97023.84
2022-09-12T03:21:16.882Z,97023.09
2022-09-12T03:23:51.510Z,97028.50
2022-09-12T03:26:46.263Z,97026.50
2022-09-12T03:29:15.243Z,97020.13
2022-09-12T03:31:51.377Z,97021.41
2022-09-12T03:34:20.855Z,97027.72
2022-09-12T03:36:48.111Z,97028.41
2022-09-12T03:39:15.471Z,97024.59
2022-09-12T03:41:42.660Z,97018.34
2022-09-12T03:44:09.663Z,97024.38
2022-09-12T03:46:36.765Z,97026.50
2022-09-12T03:49:07.621Z,97023.84
2022-09-12T03:51:35.497Z,97017.59
2022-09-12T03:54:02.230Z,97028.22
2022-09-12T03:56:32.851Z,97028.97
2022-09-12T03:59:02.658Z,97041.72
2022-09-12T04:01:29.477Z,97040.03
2022-09-12T04:03:56.893Z,97033.75
2022-09-12T04:06:23.774Z,97041.50
2022-09-12T04:08:53.166Z,97041.41
2022-09-12T04:11:33.639Z,97043.97
2022-09-12T04:14:02.600Z,97041.59
2022-09-12T04:16:29.709Z,97040.75
2022-09-12T04:18:56.356Z,97036.28
2022-09-12T04:21:23.273Z,97043.19
2022-09-12T04:23:50.394Z,97042.25
2022-09-12T04:26:20.942Z,97043.31
2022-09-12T04:28:48.766Z,97052.84
2022-09-12T04:31:22.822Z,97041.09
2022-09-12T04:34:00.925Z,97048.00
2022-09-12T04:36:29.040Z,97053.94
2022-09-12T04:38:56.272Z,97056.50
2022-09-12T04:41:27.826Z,97062.66
2022-09-12T04:43:59.172Z,97060.00
2022-09-12T04:46:38.552Z,97066.81
2022-09-12T04:49:08.803Z,97076.25
2022-09-12T04:51:42.059Z,97074.69
2022-09-12T04:54:13.714Z,97077.34
2022-09-12T04:56:44.178Z,97081.28
2022-09-12T04:59:12.212Z,97078.94
2022-09-12T05:01:39.443Z,97088.59
2022-09-12T05:04:06.307Z,97092.97
2022-09-12T05:06:36.273Z,97099.78
2022-09-12T05:09:05.447Z,97100.75
2022-09-12T05:12:02.656Z,97096.56
2022-09-12T05:14:28.324Z,97099.88
2022-09-12T05:17:00.492Z,97097.00
2022-09-12T05:19:28.275Z,97107.00
2022-09-12T05:21:55.179Z,97105.13
2022-09-12T05:24:23.086Z,97107.22
2022-09-12T05:26:53.693Z,97107.75
2022-09-12T05:29:22.303Z,97108.38
2022-09-12T05:31:58.570Z,97104.25
2022-09-12T05:34:25.285Z,97104.34
2022-09-12T05:36:52.178Z,97105.50
2022-09-12T05:39:22.893Z,97100.41
2022-09-12T05:42:32.508Z,97097.41
2022-09-12T05:45:01.738Z,97098.59
2022-09-12T05:47:28.440Z,97099.56
2022-09-12T05:49:55.416Z,97111.56
2022-09-12T05:52:22.125Z,97099.69
2022-09-12T05:54:48.894Z,97103.75
2022-09-12T05:57:15.591Z,97100.63
2022-09-12T05:59:43.385Z,97102.25
2022-09-12T06:02:11.244Z,97100.88
2022-09-12T06:04:41.066Z,97104.78
2022-09-12T06:07:07.785Z,97111.91
2022-09-12T06:09:34.566Z,97119.47
2022-09-12T06:12:04.055Z,97109.91
2022-09-12T06:14:31.104Z,97097.69
2022-09-12T06:16:57.982Z,97101.63
2022-09-12T06:19:25.605Z,97094.78
2022-09-12T06:21:54.672Z,97098.19
2022-09-12T06:24:22.472Z,97100.53
2022-09-12T06:26:52.968Z,97111.78
2022-09-12T06:29:20.358Z,97108.63
2022-09-12T06:31:56.316Z,97107.13
2022-09-12T06:34:22.992Z,97115.66
2022-09-12T06:36:53.216Z,97117.22
2022-09-12T06:39:21.843Z,97122.03
2022-09-12T06:41:50.697Z,97125.97
2022-09-12T06:44:20.481Z,97127.00
2022-09-12T06:46:47.542Z,97125.19
2022-09-12T06:49:14.878Z,97127.75
2022-09-12T06:51:42.722Z,97126.03
2022-09-12T06:54:12.160Z,97129.31
2022-09-12T06:56:39.008Z,97124.41
2022-09-12T06:59:05.680Z,97129.31
2022-09-12T07:01:33.064Z,97130.34
2022-09-12T07:04:02.575Z,97130.28
2022-09-12T07:06:32.174Z,97134.66
2022-09-12T07:09:00.566Z,97134.44
2022-09-12T07:11:34.099Z,97127.16
2022-09-12T07:14:32.594Z,97131.31
2022-09-12T07:16:59.220Z,97138.28
2022-09-12T07:19:28.656Z,97132.13
2022-09-12T07:21:58.549Z,97137.38
2022-09-12T07:24:28.422Z,97136.03
2022-09-12T07:26:55.044Z,97139.19
2022-09-12T07:29:38.031Z,97142.63
2022-09-12T07:32:06.081Z,97141.84
2022-09-12T07:34:34.653Z,97134.91
2022-09-12T07:37:01.364Z,97128.56
2022-09-12T07:39:36.912Z,97139.72
2022-09-12T07:42:06.252Z,97145.34
2022-09-12T07:44:33.187Z,97140.59
2022-09-12T07:47:06.270Z,97140.69
2022-09-12T07:49:33.147Z,97151.03
2022-09-12T07:52:00.243Z,97142.19
2022-09-12T07:54:27.885Z,97145.28
2022-09-12T07:56:55.003Z,97144.22
2022-09-12T07:59:48.813Z,97141.44
2022-09-12T08:02:22.909Z,97136.84
2022-09-12T08:04:49.629Z,97139.03
2022-09-12T08:07:18.627Z,97144.16
2022-09-12T08:09:46.524Z,97141.41
2022-09-12T08:14:53.905Z,97141.06
2022-09-12T08:17:21.351Z,97148.41
2022-09-12T08:19:48.383Z,97149.25
2022-09-12T08:22:15.965Z,97142.66
2022-09-12T08:24:46.068Z,97143.75
2022-09-12T08:27:12.962Z,97152.06
2022-09-12T08:29:39.638Z,97144.00
2022-09-12T08:32:06.783Z,97133.09
2022-09-12T08:34:33.748Z,97142.41
2022-09-12T08:37:00.439Z,97133.97
2022-09-12T08:39:27.136Z,97127.88
2022-09-12T08:42:05.808Z,97137.78
2022-09-12T08:45:01.719Z,97146.19
2022-09-12T08:47:48.491Z,97131.94
2022-09-12T08:50:21.317Z,97138.28
2022-09-12T08:53:11.277Z,97131.44
2022-09-12T08:55:40.717Z,97137.97
2022-09-12T08:58:39.290Z,97134.88
2022-09-12T09:02:07.490Z,97132.25
2022-09-12T09:04:37.481Z,97134.69
2022-09-12T09:07:41.373Z,97132.22
2022-09-12T09:10:38.270Z,97131.63
2022-09-12T09:13:36.028Z,97127.44
2022-09-12T09:16:30.744Z,97123.56
2022-09-12T09:19:05.564Z,97112.31
2022-09-12T09:21:42.787Z,97115.72
2022-09-12T09:24:14.386Z,97111.59
2022-09-12T09:26:48.795Z,97103.38
2022-09-12T09:29:18.034Z,97116.59
2022-09-12T09:31:52.203Z,97116.59
2022-09-12T09:34:21.594Z,97108.97
2022-09-12T09:37:03.209Z,97115.75
2022-09-12T09:39:51.497Z,97109.94
2022-09-12T09:42:26.948Z,97107.75
2022-09-12T09:44:56.845Z,97095.78
2022-09-12T09:47:23.534Z,97107.03
2022-09-12T09:49:50.167Z,97098.66
2022-09-12T09:52:24.351Z,97106.19
2022-09-12T09:54:57.890Z,97104.50
2022-09-12T09:57:37.181Z,97110.94
2022-09-12T10:00:22.148Z,97099.31
2022-09-12T10:03:27.055Z,97093.38
2022-09-12T10:05:57.373Z,97120.56
2022-09-12T10:08:24.163Z,97104.03
2022-09-12T10:10:58.794Z,97102.81
2022-09-12T10:13:33.146Z,97107.78
2022-09-12T10:16:03.592Z,97108.28
2022-09-12T10:18:40.710Z,97107.34
2022-09-12T10:21:22.575Z,97106.22
2022-09-12T10:24:00.192Z,97115.31
2022-09-12T10:26:32.563Z,97118.69
2022-09-12T10:29:05.044Z,97120.03
2022-09-12T10:31:49.945Z,97127.56
2022-09-12T10:34:25.481Z,97125.28
2022-09-12T10:37:01.619Z,97111.78
2022-09-12T10:39:28.686Z,97128.28
2022-09-12T10:41:55.514Z,97133.97
2022-09-12T10:44:31.069Z,97119.06
2022-09-12T10:46:59.466Z,97122.06
2022-09-12T10:49:29.646Z,97109.31
2022-09-12T10:51:59.725Z,97113.38
2022-09-12T10:54:28.530Z,97115.06
2022-09-12T10:57:01.261Z,97114.91
2022-09-12T10:59:46.151Z,97118.53
2022-09-12T11:03:05.284Z,97112.78
2022-09-12T11:05:37.495Z,97117.41
2022-09-12T11:08:48.055Z,97120.03
2022-09-12T11:11:17.365Z,97121.97
2022-09-12T11:13:53.016Z,97122.38
2022-09-12T11:16:34.626Z,97119.25
2022-09-12T11:19:34.226Z,97131.03
2022-09-12T11:22:01.102Z,97111.69
2022-09-12T11:24:37.757Z,97119.44
2022-09-12T11:27:19.732Z,97122.38
2022-09-12T11:29:54.798Z,97123.06
2022-09-12T11:32:34.285Z,97120.31
2022-09-12T11:35:00.851Z,97119.06
2022-09-12T11:37:27.939Z,97121.00
2022-09-12T11:39:56.825Z,97130.66
2022-09-12T11:42:28.550Z,97134.69
2022-09-12T11:45:04.850Z,97124.19
2022-09-12T11:47:34.947Z,97118.47
2022-09-12T11:50:09.144Z,97116.72
2022-09-12T11:52:42.680Z,97115.41
2022-09-12T11:55:18.586Z,97117.28
2022-09-12T11:57:51.932Z,97101.75
2022-09-12T12:00:20.308Z,97108.50
2022-09-12T12:03:04.773Z,97113.34
2022-09-12T12:05:41.176Z,97095.03
2022-09-12T12:08:08.674Z,97124.31
2022-09-12T12:10:41.826Z,97111.84
2022-09-12T12:13:39.998Z,97110.94
2022-09-12T12:16:24.945Z,97129.75
2022-09-12T12:19:06.385Z,97106.13
2022-09-12T12:21:40.303Z,97118.28
2022-09-12T12:24:10.174Z,97117.13
2022-09-12T12:26:39.834Z,97107.75
2022-09-12T12:29:18.514Z,97103.84
2022-09-12T12:32:03.549Z,97117.75
2022-09-12T12:34:37.920Z,97112.13
2022-09-12T12:37:19.753Z,97132.97
2022-09-12T12:39:54.037Z,97126.66
2022-09-12T12:42:33.581Z,97127.66
2022-09-12T12:45:09.182Z,97122.50
2022-09-12T12:47:39.395Z,97108.44
2022-09-12T12:50:16.494Z,97119.50
2022-09-12T12:53:05.810Z,97112.69
2022-09-12T12:55:39.061Z,97112.28
2022-09-12T12:58:08.805Z,97107.44
2022-09-12T13:00:39.798Z,97099.88
2022-09-12T13:03:09.527Z,97101.63
2022-09-12T13:05:40.356Z,97120.13
2022-09-12T13:08:10.949Z,97104.59
2022-09-12T13:10:38.677Z,97099.78
2022-09-12T13:13:08.771Z,97095.22
2022-09-12T13:15:38.203Z,97104.22
2022-09-12T13:18:13.282Z,97105.69
2022-09-12T13:21:21.802Z,97102.81
2022-09-12T13:24:16.115Z,97087.91
2022-09-12T13:26:46.981Z,97095.78
2022-09-12T13:29:19.226Z,97122.25
2022-09-12T13:31:52.102Z,97110.16
2022-09-12T13:34:24.612Z,97114.88
2022-09-12T13:37:11.481Z,97115.25
2022-09-12T13:40:39.644Z,97109.59
2022-09-12T13:43:23.390Z,97105.97
2022-09-12T13:45:51.555Z,97105.97
2022-09-12T13:48:25.465Z,97098.69
2022-09-12T13:50:53.595Z,97122.84
2022-09-12T13:53:28.426Z,97119.09
2022-09-12T13:55:59.307Z,97091.91
2022-09-12T13:58:30.991Z,97116.50
2022-09-12T14:01:20.572Z,97108.44
2022-09-12T14:04:14.742Z,97101.00
2022-09-12T14:07:00.177Z,97097.47
2022-09-12T14:09:34.827Z,97102.13
2022-09-12T14:12:19.254Z,97102.66
2022-09-12T14:14:50.153Z,97099.94
2022-09-12T14:17:19.804Z,97099.09
2022-09-12T14:19:50.118Z,97109.31
2022-09-12T14:22:19.713Z,97105.91
2022-09-12T14:24:50.606Z,97102.25
2022-09-12T14:27:26.246Z,97107.34
2022-09-12T14:30:02.456Z,97106.50
2022-09-12T14:32:29.440Z,97109.22
2022-09-12T14:35:15.511Z,97116.31
2022-09-12T14:37:52.441Z,97110.03
2022-09-12T14:40:22.390Z,97111.84
2022-09-12T14:42:59.311Z,97114.13
2022-09-12T14:45:31.782Z,97107.28
2022-09-12T14:48:00.799Z,97112.81
2022-09-12T14:50:35.406Z,97115.16
2022-09-12T14:53:12.056Z,97118.09
2022-09-12T14:58:45.211Z,97117.84
2022-09-12T15:01:16.171Z,97121.66
2022-09-12T15:03:49.697Z,97129.38
2022-09-12T15:06:44.492Z,97133.28
2022-09-12T15:09:17.235Z,97141.19
2022-09-12T15:11:46.654Z,97121.19
2022-09-12T15:14:14.526Z,97130.63
2022-09-12T15:16:44.871Z,97124.31
2022-09-12T15:24:43.509Z,97131.56
2022-09-12T15:27:35.547Z,97127.84
2022-09-12T15:30:16.112Z,97131.00
2022-09-12T15:35:42.687Z,97122.41
2022-09-12T15:39:05.394Z,97123.59
2022-09-12T15:50:00.943Z,97125.16
2022-09-12T15:52:30.173Z,97123.97
2022-09-12T15:55:18.524Z,97131.50
2022-09-12T15:57:46.638Z,97129.50
2022-09-12T16:00:24.800Z,97135.44
2022-09-12T16:05:41.556Z,97131.66
2022-09-12T16:08:18.025Z,97136.06
2022-09-12T16:10:47.917Z,97133.50
2022-09-12T16:13:14.583Z,97132.38
2022-09-12T16:15:41.708Z,97137.31
2022-09-12T16:18:08.323Z,97153.94
2022-09-12T16:20:35.329Z,97153.66
2022-09-12T16:23:02.157Z,97152.78
2022-09-12T16:25:29.322Z,97157.66
2022-09-12T16:27:56.182Z,97148.72
2022-09-12T16:30:23.206Z,97148.84
2022-09-12T16:32:51.814Z,97159.47
2022-09-12T16:35:18.826Z,97155.97
2022-09-12T16:37:54.377Z,97153.19
2022-09-12T16:40:24.723Z,97157.19
2022-09-12T16:42:51.345Z,97157.00
2022-09-12T16:45:18.131Z,97170.94
2022-09-12T16:51:33.108Z,97169.34
2022-09-12T16:54:19.019Z,97183.75
2022-09-12T16:56:50.018Z,97183.22
2022-09-12T16:59:32.818Z,97185.00
2022-09-12T17:02:12.217Z,97183.91
2022-09-12T17:04:55.593Z,97195.75
2022-09-12T17:07:23.292Z,97201.31
2022-09-12T17:10:09.713Z,97199.00
2022-09-12T17:12:46.337Z,97194.22
2022-09-12T17:18:57.782Z,97197.81
2022-09-12T17:21:24.797Z,97203.44
2022-09-12T17:23:51.545Z,97201.50
2022-09-12T17:26:18.467Z,97204.41
2022-09-12T17:28:45.099Z,97209.09
2022-09-12T17:31:13.921Z,97205.59
2022-09-12T17:33:41.839Z,97207.13
2022-09-12T17:36:13.792Z,97198.00
2022-09-12T17:38:55.075Z,97202.84
2022-09-12T17:41:59.127Z,97195.06
2022-09-12T17:44:39.559Z,97199.41
2022-09-12T17:47:14.618Z,97199.78
2022-09-12T17:49:41.748Z,97202.31
2022-09-12T17:52:21.566Z,97200.72
2022-09-12T17:54:55.186Z,97196.81
2022-09-12T17:57:50.804Z,97204.81
2022-09-12T18:00:18.307Z,97206.59
2022-09-12T18:03:30.008Z,97217.19
2022-09-12T18:06:03.770Z,97211.75
2022-09-12T18:08:37.305Z,97213.13
2022-09-12T18:11:12.599Z,97216.03
2022-09-12T18:13:43.888Z,97212.91
2022-09-12T18:16:12.782Z,97219.91
2022-09-12T18:18:39.615Z,97217.25
2022-09-12T18:21:12.945Z,97212.41
2022-09-12T18:23:53.482Z,97215.78
2022-09-12T18:26:36.644Z,97215.50
2022-09-12T18:29:12.322Z,97221.50
2022-09-12T18:31:39.803Z,97214.41
2022-09-12T18:34:19.126Z,97219.50
2022-09-12T18:36:56.316Z,97218.09
2022-09-12T18:39:28.070Z,97227.00
2022-09-12T18:41:55.385Z,97222.09
2022-09-12T18:47:26.077Z,97215.47
2022-09-12T18:52:38.840Z,97217.22
2022-09-12T18:55:08.503Z,97212.53
2022-09-12T18:57:35.931Z,97216.50
2022-09-12T19:00:12.468Z,97218.09
2022-09-12T19:05:20.391Z,97229.22
2022-09-12T19:07:47.365Z,97229.88
2022-09-12T19:10:16.194Z,97235.66
2022-09-12T19:12:43.431Z,97234.22
2022-09-12T19:15:22.365Z,97227.03
2022-09-12T19:17:50.144Z,97227.28
2022-09-12T19:20:17.333Z,97223.22
2022-09-12T19:22:45.197Z,97218.59
2022-09-12T19:25:14.163Z,97223.06
2022-09-12T19:27:47.666Z,97227.22
2022-09-12T19:33:09.074Z,97222.19
2022-09-12T19:38:20.082Z,97221.31
2022-09-12T19:40:58.693Z,97231.03
2022-09-12T19:43:25.721Z,97231.69
2022-09-12T19:45:53.226Z,97220.94
2022-09-12T19:51:14.627Z,97220.19
2022-09-12T19:53:42.474Z,97219.72
2022-09-12T19:56:15.297Z,97212.44
2022-09-12T19:58:44.724Z,97221.44
2022-09-12T20:01:25.095Z,97217.75
2022-09-12T20:03:54.636Z,97218.13
2022-09-12T20:06:27.673Z,97212.53
2022-09-12T20:08:59.163Z,97217.66
2022-09-12T20:11:38.234Z,97217.56
2022-09-12T20:14:10.686Z,97225.63
2022-09-12T20:16:48.940Z,97226.75
2022-09-12T20:19:43.250Z,97228.47
2022-09-12T20:22:22.967Z,97230.44
2022-09-12T20:24:50.545Z,97231.09
2022-09-12T20:27:19.934Z,97233.38
2022-09-12T20:29:48.444Z,97236.50
2022-09-12T20:32:26.254Z,97239.19
2022-09-12T20:34:53.997Z,97238.47
2022-09-12T20:37:34.503Z,97226.56
2022-09-12T20:40:07.092Z,97227.81
2022-09-12T20:42:34.854Z,97227.69
2022-09-12T20:45:04.190Z,97235.75
2022-09-12T20:47:31.806Z,97234.31
2022-09-12T20:50:14.189Z,97235.28
2022-09-12T20:52:46.927Z,97236.59
2022-09-12T20:57:59.461Z,97236.13
2022-09-12T21:00:30.548Z,97234.03
2022-09-12T21:02:57.792Z,97232.34
2022-09-12T21:05:42.458Z,97230.53
2022-09-12T21:08:14.396Z,97232.53
2022-09-12T21:10:44.806Z,97224.94
2022-09-12T21:13:15.603Z,97233.00
2022-09-12T21:15:47.374Z,97230.03
2022-09-12T21:18:15.911Z,97221.34
2022-09-12T21:20:51.458Z,97225.09
2022-09-12T21:26:00.918Z,97227.09
2022-09-12T21:28:36.681Z,97224.66
2022-09-12T21:31:04.739Z,97236.97
2022-09-12T21:33:36.731Z,97238.84
2022-09-12T21:36:07.293Z,97245.09
2022-09-12T21:38:37.562Z,97245.81
2022-09-12T21:41:16.435Z,97254.66
2022-09-12T21:43:46.496Z,97240.63
2022-09-12T21:49:13.475Z,97242.44
2022-09-12T21:51:41.360Z,97237.22
2022-09-12T21:54:11.213Z,97235.88
2022-09-12T21:56:43.708Z,97227.84
2022-09-12T21:59:10.476Z,97229.06
2022-09-12T22:01:38.540Z,97224.13
2022-09-12T22:04:06.824Z,97225.56
2022-09-12T22:06:35.092Z,97230.25
2022-09-12T22:09:01.841Z,97231.22
2022-09-12T22:11:30.925Z,97230.81
2022-09-12T22:14:00.233Z,97227.22
2022-09-12T22:16:27.137Z,97229.03
2022-09-12T22:18:56.365Z,97228.34
2022-09-12T22:21:34.009Z,97221.44
2022-09-12T22:27:08.249Z,97224.00
2022-09-12T22:29:36.312Z,97216.81
2022-09-12T22:32:05.631Z,97228.91
2022-09-12T22:34:32.351Z,97226.44
2022-09-12T22:37:04.305Z,97228.44
2022-09-12T22:39:31.034Z,97232.03
2022-09-12T22:44:51.989Z,97232.03
2022-09-12T22:47:29.370Z,97233.81
2022-09-12T22:49:56.446Z,97235.53
2022-09-12T22:52:25.025Z,97230.22
2022-09-12T22:54:52.149Z,97231.06
2022-09-12T22:57:23.969Z,97232.13
2022-09-12T22:59:50.941Z,97230.78
2022-09-12T23:02:17.740Z,97220.53
2022-09-12T23:04:46.898Z,97222.34
2022-09-12T23:07:13.698Z,97226.75
2022-09-12T23:09:43.600Z,97221.56
2022-09-12T23:12:14.206Z,97219.50
2022-09-12T23:14:41.070Z,97223.84
2022-09-12T23:17:18.923Z,97220.69
2022-09-12T23:19:47.679Z,97226.28
2022-09-12T23:25:19.574Z,97226.53
2022-09-12T23:27:53.981Z,97219.53
2022-09-12T23:30:25.937Z,97222.72
2022-09-12T23:32:52.627Z,97224.34
2022-09-12T23:35:20.022Z,97226.53
2022-09-12T23:37:52.803Z,97222.53
2022-09-12T23:40:22.380Z,97220.22
2022-09-12T23:49:53.100Z,97221.16
2022-09-12T23:52:20.874Z,97217.75
2022-09-12T23:54:51.055Z,97222.19
2022-09-12T23:57:23.688Z,97223.19
2022-09-12T23:59:54.513Z,97223.78
